sensor_id;sensor_type;location;lat;lon;timestamp;P1;durP1;ratioP1;P2;durP2;ratioP2
44126;SDS011;29786;50.798;7.302;2023-04-24T00:00:48;1.2;;;0.9;;
44126;SDS011;29786;50.798;7.302;2023-04-24T00:02:03;0.9;;;0.8;;
44126;SDS011;29786;50.798;7.302;2023-04-24T00:03:17;0.9;;;0.9;;
44126;SDS011;29786;50.798;7.302;2023-04-24T00:05:45;1.2;;;1.1;;
44126;SDS011;29786;50.798;7.302;2023-04-24T00:06:59;1;;;1;;
44126;SDS011;29786;50.798;7.302;2023-04-24T00:08:13;0.9;;;0.9;;
44126;SDS011;29786;50.798;7.302;2023-04-24T00:10:42;0.8;;;0.8;;
44126;SDS011;29786;50.798;7.302;2023-04-24T00:11:56;1.2;;;0.9;;
44126;SDS011;29786;50.798;7.302;2023-04-24T00:13:11;1.4;;;1;;
44126;SDS011;29786;50.798;7.302;2023-04-24T00:14:24;1.6;;;0.9;;
44126;SDS011;29786;50.798;7.302;2023-04-24T00:16:52;1.4;;;1;;
44126;SDS011;29786;50.798;7.302;2023-04-24T00:18:06;0.9;;;0.9;;
44126;SDS011;29786;50.798;7.302;2023-04-24T00:19:20;2.1;;;0.9;;
44126;SDS011;29786;50.798;7.302;2023-04-24T00:21:49;1.3;;;0.8;;
44126;SDS011;29786;50.798;7.302;2023-04-24T00:23:03;0.6;;;0.6;;
44126;SDS011;29786;50.798;7.302;2023-04-24T00:24:17;1;;;0.8;;
44126;SDS011;29786;50.798;7.302;2023-04-24T00:26:45;1.4;;;0.7;;
44126;SDS011;29786;50.798;7.302;2023-04-24T00:28:00;0.7;;;0.7;;
44126;SDS011;29786;50.798;7.302;2023-04-24T00:29:14;0.8;;;0.8;;
44126;SDS011;29786;50.798;7.302;2023-04-24T00:31:42;1.4;;;0.9;;
44126;SDS011;29786;50.798;7.302;2023-04-24T00:32:56;0.8;;;0.8;;
44126;SDS011;29786;50.798;7.302;2023-04-24T00:34:10;0.7;;;0.7;;
44126;SDS011;29786;50.798;7.302;2023-04-24T00:35:24;0.9;;;0.7;;
44126;SDS011;29786;50.798;7.302;2023-04-24T00:37:52;0.7;;;0.7;;
44126;SDS011;29786;50.798;7.302;2023-04-24T00:39:07;1.6;;;0.7;;
44126;SDS011;29786;50.798;7.302;2023-04-24T00:40:21;0.8;;;0.8;;
44126;SDS011;29786;50.798;7.302;2023-04-24T00:42:49;0.7;;;0.7;;
44126;SDS011;29786;50.798;7.302;2023-04-24T00:44:03;0.7;;;0.7;;
44126;SDS011;29786;50.798;7.302;2023-04-24T00:45:17;1.4;;;0.9;;
44126;SDS011;29786;50.798;7.302;2023-04-24T00:47:46;0.9;;;0.8;;
44126;SDS011;29786;50.798;7.302;2023-04-24T00:49:00;1.5;;;0.9;;
44126;SDS011;29786;50.798;7.302;2023-04-24T00:50:14;1.3;;;0.8;;
44126;SDS011;29786;50.798;7.302;2023-04-24T00:52:42;1.2;;;0.7;;
44126;SDS011;29786;50.798;7.302;2023-04-24T00:53:56;0.8;;;0.6;;
44126;SDS011;29786;50.798;7.302;2023-04-24T00:55:10;0.7;;;0.7;;
44126;SDS011;29786;50.798;7.302;2023-04-24T00:56:25;2.4;;;0.9;;
44126;SDS011;29786;50.798;7.302;2023-04-24T00:58:53;1.1;;;0.9;;
44126;SDS011;29786;50.798;7.302;2023-04-24T01:00:07;1.4;;;0.8;;
44126;SDS011;29786;50.798;7.302;2023-04-24T01:01:21;0.8;;;0.8;;
44126;SDS011;29786;50.798;7.302;2023-04-24T01:03:50;0.6;;;0.6;;
44126;SDS011;29786;50.798;7.302;2023-04-24T01:05:04;1.2;;;0.9;;
44126;SDS011;29786;50.798;7.302;2023-04-24T01:06:18;1.1;;;0.8;;
44126;SDS011;29786;50.798;7.302;2023-04-24T01:08:46;1.5;;;1.1;;
44126;SDS011;29786;50.798;7.302;2023-04-24T01:10:00;0.9;;;0.6;;
44126;SDS011;29786;50.798;7.302;2023-04-24T01:11:14;1.1;;;1;;
44126;SDS011;29786;50.798;7.302;2023-04-24T01:13:42;1.3;;;0.7;;
44126;SDS011;29786;50.798;7.302;2023-04-24T01:14:56;0.7;;;0.7;;
44126;SDS011;29786;50.798;7.302;2023-04-24T01:16:11;0.8;;;0.7;;
44126;SDS011;29786;50.798;7.302;2023-04-24T01:17:25;2.3;;;0.8;;
44126;SDS011;29786;50.798;7.302;2023-04-24T01:19:53;1.1;;;1;;
44126;SDS011;29786;50.798;7.302;2023-04-24T01:21:07;1.4;;;1.1;;
44126;SDS011;29786;50.798;7.302;2023-04-24T01:22:21;1.5;;;0.8;;
44126;SDS011;29786;50.798;7.302;2023-04-24T01:24:50;1.6;;;1.4;;
44126;SDS011;29786;50.798;7.302;2023-04-24T01:26:04;1.4;;;1.4;;
44126;SDS011;29786;50.798;7.302;2023-04-24T01:27:18;1.5;;;1.2;;
44126;SDS011;29786;50.798;7.302;2023-04-24T01:29:46;0.7;;;0.7;;
44126;SDS011;29786;50.798;7.302;2023-04-24T01:31:00;0.8;;;0.8;;
44126;SDS011;29786;50.798;7.302;2023-04-24T01:32:14;0.7;;;0.7;;
44126;SDS011;29786;50.798;7.302;2023-04-24T01:34:43;1.2;;;1.1;;
44126;SDS011;29786;50.798;7.302;2023-04-24T01:35:57;1.2;;;0.9;;
44126;SDS011;29786;50.798;7.302;2023-04-24T01:37:11;1.7;;;0.7;;
44126;SDS011;29786;50.798;7.302;2023-04-24T01:39:39;2.5;;;0.7;;
44126;SDS011;29786;50.798;7.302;2023-04-24T01:40:53;1;;;0.7;;
44126;SDS011;29786;50.798;7.302;2023-04-24T01:42:07;2.4;;;1;;
44126;SDS011;29786;50.798;7.302;2023-04-24T01:43:22;0.8;;;0.8;;
44126;SDS011;29786;50.798;7.302;2023-04-24T01:45:50;0.9;;;0.7;;
44126;SDS011;29786;50.798;7.302;2023-04-24T01:47:04;0.9;;;0.8;;
44126;SDS011;29786;50.798;7.302;2023-04-24T01:48:18;0.9;;;0.8;;
44126;SDS011;29786;50.798;7.302;2023-04-24T01:50:46;1.3;;;1.2;;
44126;SDS011;29786;50.798;7.302;2023-04-24T01:52:00;2.1;;;1.5;;
44126;SDS011;29786;50.798;7.302;2023-04-24T01:53:15;1.5;;;1.4;;
44126;SDS011;29786;50.798;7.302;2023-04-24T01:55:43;1.6;;;1.5;;
44126;SDS011;29786;50.798;7.302;2023-04-24T01:56:57;1.5;;;1.4;;
44126;SDS011;29786;50.798;7.302;2023-04-24T01:58:11;1.8;;;1.7;;
44126;SDS011;29786;50.798;7.302;2023-04-24T02:00:39;2.2;;;2;;
44126;SDS011;29786;50.798;7.302;2023-04-24T02:01:54;2.2;;;1.7;;
44126;SDS011;29786;50.798;7.302;2023-04-24T02:03:08;2.1;;;1.8;;
44126;SDS011;29786;50.798;7.302;2023-04-24T02:04:22;1.6;;;1.5;;
44126;SDS011;29786;50.798;7.302;2023-04-24T02:06:50;3.5;;;1.9;;
44126;SDS011;29786;50.798;7.302;2023-04-24T02:08:04;1.5;;;1.4;;
44126;SDS011;29786;50.798;7.302;2023-04-24T02:09:18;2.5;;;1.7;;
44126;SDS011;29786;50.798;7.302;2023-04-24T02:11:47;2.6;;;1.8;;
44126;SDS011;29786;50.798;7.302;2023-04-24T02:13:01;1.8;;;1.7;;
44126;SDS011;29786;50.798;7.302;2023-04-24T02:14:15;2.3;;;1.8;;
44126;SDS011;29786;50.798;7.302;2023-04-24T02:16:43;3.1;;;1.8;;
44126;SDS011;29786;50.798;7.302;2023-04-24T02:17:57;2.4;;;1.8;;
44126;SDS011;29786;50.798;7.302;2023-04-24T02:19:11;2.6;;;1.9;;
44126;SDS011;29786;50.798;7.302;2023-04-24T02:20:26;3.4;;;2;;
44126;SDS011;29786;50.798;7.302;2023-04-24T02:21:40;3.1;;;1.9;;
44126;SDS011;29786;50.798;7.302;2023-04-24T02:22:54;2.7;;;2.2;;
44126;SDS011;29786;50.798;7.302;2023-04-24T02:24:08;2.5;;;1.7;;
44126;SDS011;29786;50.798;7.302;2023-04-24T02:25:22;3.9;;;2.1;;
44126;SDS011;29786;50.798;7.302;2023-04-24T02:27:50;2.5;;;1.8;;
44126;SDS011;29786;50.798;7.302;2023-04-24T02:29:05;1.8;;;1.6;;
44126;SDS011;29786;50.798;7.302;2023-04-24T02:30:19;3.3;;;1.8;;
44126;SDS011;29786;50.798;7.302;2023-04-24T02:32:47;2.1;;;1.9;;
44126;SDS011;29786;50.798;7.302;2023-04-24T02:34:01;5;;;2.3;;
44126;SDS011;29786;50.798;7.302;2023-04-24T02:35:15;1.7;;;1.6;;
44126;SDS011;29786;50.798;7.302;2023-04-24T02:37:43;3.1;;;1.9;;
44126;SDS011;29786;50.798;7.302;2023-04-24T02:38:58;3.3;;;2.2;;
44126;SDS011;29786;50.798;7.302;2023-04-24T02:40:12;3.1;;;1.7;;
44126;SDS011;29786;50.798;7.302;2023-04-24T02:42:40;4.1;;;2.9;;
44126;SDS011;29786;50.798;7.302;2023-04-24T02:43:54;3.3;;;2.6;;
44126;SDS011;29786;50.798;7.302;2023-04-24T02:45:08;4.4;;;3;;
44126;SDS011;29786;50.798;7.302;2023-04-24T02:46:22;3.8;;;3.4;;
44126;SDS011;29786;50.798;7.302;2023-04-24T02:48:51;6.3;;;2.9;;
44126;SDS011;29786;50.798;7.302;2023-04-24T02:50:05;3.4;;;3.1;;
44126;SDS011;29786;50.798;7.302;2023-04-24T02:51:19;4.3;;;3;;
44126;SDS011;29786;50.798;7.302;2023-04-24T02:53:47;3.2;;;2.9;;
44126;SDS011;29786;50.798;7.302;2023-04-24T02:55:01;3.5;;;3.2;;
44126;SDS011;29786;50.798;7.302;2023-04-24T02:56:15;3.7;;;3.4;;
44126;SDS011;29786;50.798;7.302;2023-04-24T02:58:44;5.8;;;3.9;;
44126;SDS011;29786;50.798;7.302;2023-04-24T02:59:58;5;;;4;;
44126;SDS011;29786;50.798;7.302;2023-04-24T03:01:12;5.7;;;4.4;;
44126;SDS011;29786;50.798;7.302;2023-04-24T03:03:40;4.9;;;4.4;;
44126;SDS011;29786;50.798;7.302;2023-04-24T03:04:54;6.2;;;4.1;;
44126;SDS011;29786;50.798;7.302;2023-04-24T03:06:08;4.7;;;4.3;;
44126;SDS011;29786;50.798;7.302;2023-04-24T03:07:23;5;;;4.2;;
44126;SDS011;29786;50.798;7.302;2023-04-24T03:09:51;5.6;;;4.5;;
44126;SDS011;29786;50.798;7.302;2023-04-24T03:11:05;6.2;;;4.4;;
44126;SDS011;29786;50.798;7.302;2023-04-24T03:12:19;5.1;;;4.3;;
44126;SDS011;29786;50.798;7.302;2023-04-24T03:14:47;6;;;4.2;;
44126;SDS011;29786;50.798;7.302;2023-04-24T03:16:02;4.5;;;4.1;;
44126;SDS011;29786;50.798;7.302;2023-04-24T03:17:16;4.6;;;4;;
44126;SDS011;29786;50.798;7.302;2023-04-24T03:19:44;4.6;;;4.2;;
44126;SDS011;29786;50.798;7.302;2023-04-24T03:20:58;7.9;;;4.9;;
44126;SDS011;29786;50.798;7.302;2023-04-24T03:22:12;4.7;;;4.1;;
44126;SDS011;29786;50.798;7.302;2023-04-24T03:24:40;5.4;;;4.1;;
44126;SDS011;29786;50.798;7.302;2023-04-24T03:25:55;4.3;;;3.7;;
44126;SDS011;29786;50.798;7.302;2023-04-24T03:27:09;6.5;;;3.6;;
44126;SDS011;29786;50.798;7.302;2023-04-24T03:28:23;4.6;;;3.9;;
44126;SDS011;29786;50.798;7.302;2023-04-24T03:30:51;4.9;;;4.3;;
44126;SDS011;29786;50.798;7.302;2023-04-24T03:32:05;7.9;;;4.7;;
44126;SDS011;29786;50.798;7.302;2023-04-24T03:33:19;5.4;;;4.4;;
44126;SDS011;29786;50.798;7.302;2023-04-24T03:35:48;6.6;;;4.6;;
44126;SDS011;29786;50.798;7.302;2023-04-24T03:37:02;5.1;;;4.5;;
44126;SDS011;29786;50.798;7.302;2023-04-24T03:38:16;5.8;;;4.6;;
44126;SDS011;29786;50.798;7.302;2023-04-24T03:40:44;6.2;;;4.9;;
44126;SDS011;29786;50.798;7.302;2023-04-24T03:41:58;6.5;;;5;;
44126;SDS011;29786;50.798;7.302;2023-04-24T03:43:12;5.4;;;4.9;;
44126;SDS011;29786;50.798;7.302;2023-04-24T03:44:27;5.2;;;4.7;;
44126;SDS011;29786;50.798;7.302;2023-04-24T03:45:41;6;;;4.6;;
44126;SDS011;29786;50.798;7.302;2023-04-24T03:46:55;6.1;;;5;;
44126;SDS011;29786;50.798;7.302;2023-04-24T03:48:09;6.6;;;5.2;;
44126;SDS011;29786;50.798;7.302;2023-04-24T03:49:23;5.7;;;5;;
44126;SDS011;29786;50.798;7.302;2023-04-24T03:51:52;5.6;;;5;;
44126;SDS011;29786;50.798;7.302;2023-04-24T03:53:06;6.8;;;5;;
44126;SDS011;29786;50.798;7.302;2023-04-24T03:54:20;5.2;;;4.7;;
44126;SDS011;29786;50.798;7.302;2023-04-24T03:56:48;7.1;;;4.7;;
44126;SDS011;29786;50.798;7.302;2023-04-24T03:58:02;6.2;;;5;;
44126;SDS011;29786;50.798;7.302;2023-04-24T03:59:16;5.7;;;5.1;;
44126;SDS011;29786;50.798;7.302;2023-04-24T04:01:44;6.2;;;5;;
44126;SDS011;29786;50.798;7.302;2023-04-24T04:02:59;5.2;;;4.7;;
44126;SDS011;29786;50.798;7.302;2023-04-24T04:04:13;6.3;;;4.7;;
44126;SDS011;29786;50.798;7.302;2023-04-24T04:06:41;5.6;;;4.6;;
44126;SDS011;29786;50.798;7.302;2023-04-24T04:07:55;7.7;;;4.9;;
44126;SDS011;29786;50.798;7.302;2023-04-24T04:09:10;5.6;;;4.9;;
44126;SDS011;29786;50.798;7.302;2023-04-24T04:10:23;6.7;;;5.1;;
44126;SDS011;29786;50.798;7.302;2023-04-24T04:12:52;6.6;;;4.8;;
44126;SDS011;29786;50.798;7.302;2023-04-24T04:14:06;5.2;;;4.7;;
44126;SDS011;29786;50.798;7.302;2023-04-24T04:15:20;6.2;;;4.6;;
44126;SDS011;29786;50.798;7.302;2023-04-24T04:17:48;7.7;;;5.4;;
44126;SDS011;29786;50.798;7.302;2023-04-24T04:19:02;4.6;;;4.2;;
44126;SDS011;29786;50.798;7.302;2023-04-24T04:20:17;4.6;;;4.2;;
44126;SDS011;29786;50.798;7.302;2023-04-24T04:22:45;6.8;;;4.5;;
44126;SDS011;29786;50.798;7.302;2023-04-24T04:23:59;5.9;;;4.9;;
44126;SDS011;29786;50.798;7.302;2023-04-24T04:25:13;5.6;;;4.6;;
44126;SDS011;29786;50.798;7.302;2023-04-24T04:27:41;4.7;;;4.2;;
44126;SDS011;29786;50.798;7.302;2023-04-24T04:28:55;4.7;;;4;;
44126;SDS011;29786;50.798;7.302;2023-04-24T04:30:10;5.3;;;4.8;;
44126;SDS011;29786;50.798;7.302;2023-04-24T04:31:24;5.6;;;4.6;;
44126;SDS011;29786;50.798;7.302;2023-04-24T04:33:52;5.7;;;4.8;;
44126;SDS011;29786;50.798;7.302;2023-04-24T04:35:06;4.9;;;4.4;;
44126;SDS011;29786;50.798;7.302;2023-04-24T04:36:20;5.7;;;4.7;;
44126;SDS011;29786;50.798;7.302;2023-04-24T04:38:49;5.6;;;4.6;;
44126;SDS011;29786;50.798;7.302;2023-04-24T04:40:03;5.9;;;4.7;;
44126;SDS011;29786;50.798;7.302;2023-04-24T04:41:17;5.6;;;4.2;;
44126;SDS011;29786;50.798;7.302;2023-04-24T04:43:45;6.7;;;4.8;;
44126;SDS011;29786;50.798;7.302;2023-04-24T04:44:59;5.1;;;4.6;;
44126;SDS011;29786;50.798;7.302;2023-04-24T04:46:13;7.2;;;4.7;;
44126;SDS011;29786;50.798;7.302;2023-04-24T04:48:41;5.9;;;4.6;;
44126;SDS011;29786;50.798;7.302;2023-04-24T04:49:56;6;;;4.7;;
44126;SDS011;29786;50.798;7.302;2023-04-24T04:51:10;6.1;;;5.3;;
44126;SDS011;29786;50.798;7.302;2023-04-24T04:52:24;5.9;;;4.9;;
44126;SDS011;29786;50.798;7.302;2023-04-24T04:54:52;5.3;;;4.8;;
44126;SDS011;29786;50.798;7.302;2023-04-24T04:56:06;5.8;;;4.5;;
44126;SDS011;29786;50.798;7.302;2023-04-24T04:57:20;6.2;;;4.6;;
44126;SDS011;29786;50.798;7.302;2023-04-24T04:59:49;6.1;;;5.2;;
44126;SDS011;29786;50.798;7.302;2023-04-24T05:01:03;4.6;;;4.2;;
44126;SDS011;29786;50.798;7.302;2023-04-24T05:02:17;5.4;;;4.4;;
44126;SDS011;29786;50.798;7.302;2023-04-24T05:04:45;5.8;;;4.4;;
44126;SDS011;29786;50.798;7.302;2023-04-24T05:06:00;6.1;;;5.3;;
44126;SDS011;29786;50.798;7.302;2023-04-24T05:07:14;5.5;;;5;;
44126;SDS011;29786;50.798;7.302;2023-04-24T05:09:42;5.3;;;4.8;;
44126;SDS011;29786;50.798;7.302;2023-04-24T05:10:56;6.1;;;4.8;;
44126;SDS011;29786;50.798;7.302;2023-04-24T05:12:10;7;;;5.2;;
44126;SDS011;29786;50.798;7.302;2023-04-24T05:14:38;5.4;;;4.5;;
44126;SDS011;29786;50.798;7.302;2023-04-24T05:15:52;6.5;;;5.2;;
44126;SDS011;29786;50.798;7.302;2023-04-24T05:17:07;5.4;;;4.9;;
44126;SDS011;29786;50.798;7.302;2023-04-24T05:18:21;4.9;;;4.4;;
44126;SDS011;29786;50.798;7.302;2023-04-24T05:20:49;6.7;;;4.5;;
44126;SDS011;29786;50.798;7.302;2023-04-24T05:22:03;6.1;;;4.3;;
44126;SDS011;29786;50.798;7.302;2023-04-24T05:23:17;8.3;;;4.6;;
44126;SDS011;29786;50.798;7.302;2023-04-24T05:25:46;6.6;;;4.6;;
44126;SDS011;29786;50.798;7.302;2023-04-24T05:27:00;5.8;;;4.2;;
44126;SDS011;29786;50.798;7.302;2023-04-24T05:28:14;5.8;;;4.5;;
44126;SDS011;29786;50.798;7.302;2023-04-24T05:30:42;5.6;;;4.2;;
44126;SDS011;29786;50.798;7.302;2023-04-24T05:31:56;5.9;;;4.6;;
44126;SDS011;29786;50.798;7.302;2023-04-24T05:33:10;6.1;;;4.9;;
44126;SDS011;29786;50.798;7.302;2023-04-24T05:34:24;5.9;;;5.2;;
44126;SDS011;29786;50.798;7.302;2023-04-24T05:36:53;6.4;;;5.1;;
44126;SDS011;29786;50.798;7.302;2023-04-24T05:38:07;5.4;;;4.9;;
44126;SDS011;29786;50.798;7.302;2023-04-24T05:39:21;5.6;;;4.6;;
44126;SDS011;29786;50.798;7.302;2023-04-24T05:41:49;5.4;;;4.4;;
44126;SDS011;29786;50.798;7.302;2023-04-24T05:43:03;5.2;;;4.7;;
44126;SDS011;29786;50.798;7.302;2023-04-24T05:44:17;5.3;;;4.7;;
44126;SDS011;29786;50.798;7.302;2023-04-24T05:46:46;6.2;;;4.8;;
44126;SDS011;29786;50.798;7.302;2023-04-24T05:48:00;5.5;;;4.6;;
44126;SDS011;29786;50.798;7.302;2023-04-24T05:49:14;6.1;;;5.2;;
44126;SDS011;29786;50.798;7.302;2023-04-24T05:51:42;6;;;5.1;;
44126;SDS011;29786;50.798;7.302;2023-04-24T05:52:57;6.1;;;5;;
44126;SDS011;29786;50.798;7.302;2023-04-24T05:54:11;5.3;;;4.4;;
44126;SDS011;29786;50.798;7.302;2023-04-24T05:55:25;5.2;;;4.7;;
44126;SDS011;29786;50.798;7.302;2023-04-24T05:57:53;5.3;;;4.1;;
44126;SDS011;29786;50.798;7.302;2023-04-24T05:59:08;6.9;;;4.7;;
44126;SDS011;29786;50.798;7.302;2023-04-24T06:00:21;6.4;;;4.8;;
44126;SDS011;29786;50.798;7.302;2023-04-24T06:02:50;7.9;;;5.2;;
44126;SDS011;29786;50.798;7.302;2023-04-24T06:04:04;7.5;;;5.1;;
44126;SDS011;29786;50.798;7.302;2023-04-24T06:05:18;7.7;;;4.8;;
44126;SDS011;29786;50.798;7.302;2023-04-24T06:07:46;6.2;;;4.9;;
44126;SDS011;29786;50.798;7.302;2023-04-24T06:09:00;7.8;;;4.9;;
44126;SDS011;29786;50.798;7.302;2023-04-24T06:10:14;6.2;;;5.1;;
44126;SDS011;29786;50.798;7.302;2023-04-24T06:12:43;6.4;;;5.1;;
44126;SDS011;29786;50.798;7.302;2023-04-24T06:13:57;6.9;;;5.2;;
44126;SDS011;29786;50.798;7.302;2023-04-24T06:15:11;7.9;;;5.4;;
44126;SDS011;29786;50.798;7.302;2023-04-24T06:16:25;6.9;;;5.5;;
44126;SDS011;29786;50.798;7.302;2023-04-24T06:18:53;7.4;;;5;;
44126;SDS011;29786;50.798;7.302;2023-04-24T06:20:07;6;;;5.4;;
44126;SDS011;29786;50.798;7.302;2023-04-24T06:21:21;6.4;;;5.1;;
44126;SDS011;29786;50.798;7.302;2023-04-24T06:23:50;8.8;;;5.3;;
44126;SDS011;29786;50.798;7.302;2023-04-24T06:25:04;6;;;5.2;;
44126;SDS011;29786;50.798;7.302;2023-04-24T06:26:18;6.3;;;5.2;;
44126;SDS011;29786;50.798;7.302;2023-04-24T06:28:46;7.7;;;6.2;;
44126;SDS011;29786;50.798;7.302;2023-04-24T06:30:01;6.4;;;4.6;;
44126;SDS011;29786;50.798;7.302;2023-04-24T06:31:15;7.1;;;5.5;;
44126;SDS011;29786;50.798;7.302;2023-04-24T06:33:43;6.6;;;6;;
44126;SDS011;29786;50.798;7.302;2023-04-24T06:34:57;6.8;;;5.4;;
44126;SDS011;29786;50.798;7.302;2023-04-24T06:36:11;6.7;;;5.3;;
44126;SDS011;29786;50.798;7.302;2023-04-24T06:38:39;6.6;;;5.3;;
44126;SDS011;29786;50.798;7.302;2023-04-24T06:39:53;6.7;;;5.8;;
44126;SDS011;29786;50.798;7.302;2023-04-24T06:41:08;6.9;;;6.2;;
44126;SDS011;29786;50.798;7.302;2023-04-24T06:42:22;6.3;;;5.7;;
44126;SDS011;29786;50.798;7.302;2023-04-24T06:44:50;11.3;;;9.8;;
44126;SDS011;29786;50.798;7.302;2023-04-24T06:46:04;7.7;;;5.8;;
44126;SDS011;29786;50.798;7.302;2023-04-24T06:47:18;7;;;5.9;;
44126;SDS011;29786;50.798;7.302;2023-04-24T06:49:55;7.8;;;6;;
44126;SDS011;29786;50.798;7.302;2023-04-24T06:51:09;9.6;;;6.9;;
44126;SDS011;29786;50.798;7.302;2023-04-24T06:52:23;6.7;;;6;;
44126;SDS011;29786;50.798;7.302;2023-04-24T06:54:51;8;;;6.5;;
44126;SDS011;29786;50.798;7.302;2023-04-24T06:56:05;10.9;;;7.3;;
44126;SDS011;29786;50.798;7.302;2023-04-24T06:57:20;7.9;;;7;;
44126;SDS011;29786;50.798;7.302;2023-04-24T06:59:48;8.6;;;6.5;;
44126;SDS011;29786;50.798;7.302;2023-04-24T07:01:02;7.6;;;6.9;;
44126;SDS011;29786;50.798;7.302;2023-04-24T07:02:16;9.9;;;7;;
44126;SDS011;29786;50.798;7.302;2023-04-24T07:04:44;8;;;7.2;;
44126;SDS011;29786;50.798;7.302;2023-04-24T07:05:58;10.8;;;7.2;;
44126;SDS011;29786;50.798;7.302;2023-04-24T07:07:13;11.2;;;7.9;;
44126;SDS011;29786;50.798;7.302;2023-04-24T07:09:41;8.7;;;7.8;;
44126;SDS011;29786;50.798;7.302;2023-04-24T07:10:55;11.8;;;8.6;;
44126;SDS011;29786;50.798;7.302;2023-04-24T07:12:09;10.6;;;8.5;;
44126;SDS011;29786;50.798;7.302;2023-04-24T07:13:23;10.9;;;8.8;;
44126;SDS011;29786;50.798;7.302;2023-04-24T07:15:53;9.8;;;8.2;;
44126;SDS011;29786;50.798;7.302;2023-04-24T07:17:06;9.4;;;7.9;;
44126;SDS011;29786;50.798;7.302;2023-04-24T07:18:20;9.2;;;7.6;;
44126;SDS011;29786;50.798;7.302;2023-04-24T07:20:48;9.6;;;7.8;;
44126;SDS011;29786;50.798;7.302;2023-04-24T07:22:02;9.3;;;8;;
44126;SDS011;29786;50.798;7.302;2023-04-24T07:23:17;9.4;;;8.1;;
44126;SDS011;29786;50.798;7.302;2023-04-24T07:25:45;8.6;;;7.5;;
44126;SDS011;29786;50.798;7.302;2023-04-24T07:26:59;9.5;;;7.2;;
44126;SDS011;29786;50.798;7.302;2023-04-24T07:28:13;8;;;6.9;;
44126;SDS011;29786;50.798;7.302;2023-04-24T07:30:41;8.6;;;6.6;;
44126;SDS011;29786;50.798;7.302;2023-04-24T07:31:55;6.1;;;5.5;;
44126;SDS011;29786;50.798;7.302;2023-04-24T07:33:09;7.5;;;5.6;;
44126;SDS011;29786;50.798;7.302;2023-04-24T07:34:23;8.9;;;6.4;;
44126;SDS011;29786;50.798;7.302;2023-04-24T07:36:52;6.8;;;5;;
44126;SDS011;29786;50.798;7.302;2023-04-24T07:38:06;5.1;;;4.6;;
44126;SDS011;29786;50.798;7.302;2023-04-24T07:39:20;6.8;;;5.4;;
44126;SDS011;29786;50.798;7.302;2023-04-24T07:41:48;6;;;5.4;;
44126;SDS011;29786;50.798;7.302;2023-04-24T07:43:02;6.5;;;5.1;;
44126;SDS011;29786;50.798;7.302;2023-04-24T07:44:17;6.8;;;5.5;;
44126;SDS011;29786;50.798;7.302;2023-04-24T07:46:45;5.6;;;5;;
44126;SDS011;29786;50.798;7.302;2023-04-24T07:47:59;5.7;;;5.1;;
44126;SDS011;29786;50.798;7.302;2023-04-24T07:49:13;6.1;;;5;;
44126;SDS011;29786;50.798;7.302;2023-04-24T07:51:41;6.3;;;4.9;;
44126;SDS011;29786;50.798;7.302;2023-04-24T07:52:56;6.2;;;5;;
44126;SDS011;29786;50.798;7.302;2023-04-24T07:54:10;5.4;;;4.9;;
44126;SDS011;29786;50.798;7.302;2023-04-24T07:55:24;8.2;;;5.4;;
44126;SDS011;29786;50.798;7.302;2023-04-24T07:57:52;6.8;;;5.2;;
44126;SDS011;29786;50.798;7.302;2023-04-24T07:59:06;6.3;;;5.6;;
44126;SDS011;29786;50.798;7.302;2023-04-24T08:00:20;5.6;;;5;;
44126;SDS011;29786;50.798;7.302;2023-04-24T08:02:49;8.4;;;5.5;;
44126;SDS011;29786;50.798;7.302;2023-04-24T08:04:03;5.8;;;4.9;;
44126;SDS011;29786;50.798;7.302;2023-04-24T08:05:17;5.8;;;5;;
44126;SDS011;29786;50.798;7.302;2023-04-24T08:07:45;4.4;;;4;;
44126;SDS011;29786;50.798;7.302;2023-04-24T08:08:59;10.4;;;4.5;;
44126;SDS011;29786;50.798;7.302;2023-04-24T08:10:14;5.6;;;4.5;;
44126;SDS011;29786;50.798;7.302;2023-04-24T08:12:42;4.3;;;3.9;;
44126;SDS011;29786;50.798;7.302;2023-04-24T08:13:56;4.3;;;3.9;;
44126;SDS011;29786;50.798;7.302;2023-04-24T08:15:10;4.5;;;3.9;;
44126;SDS011;29786;50.798;7.302;2023-04-24T08:16:24;4.2;;;3.8;;
44126;SDS011;29786;50.798;7.302;2023-04-24T08:18:52;5;;;4.4;;
44126;SDS011;29786;50.798;7.302;2023-04-24T08:20:07;2.6;;;2.4;;
44126;SDS011;29786;50.798;7.302;2023-04-24T08:21:21;3.2;;;2.9;;
44126;SDS011;29786;50.798;7.302;2023-04-24T08:23:49;3;;;2.6;;
44126;SDS011;29786;50.798;7.302;2023-04-24T08:25:03;3.2;;;2.7;;
44126;SDS011;29786;50.798;7.302;2023-04-24T08:26:17;2.7;;;2.3;;
44126;SDS011;29786;50.798;7.302;2023-04-24T08:28:45;3.9;;;2.7;;
44126;SDS011;29786;50.798;7.302;2023-04-24T08:30:00;2.8;;;2.5;;
44126;SDS011;29786;50.798;7.302;2023-04-24T08:31:14;4.8;;;2.5;;
44126;SDS011;29786;50.798;7.302;2023-04-24T08:33:42;3.6;;;2.7;;
44126;SDS011;29786;50.798;7.302;2023-04-24T08:34:56;3.5;;;2.6;;
44126;SDS011;29786;50.798;7.302;2023-04-24T08:36:10;2.7;;;2.5;;
44126;SDS011;29786;50.798;7.302;2023-04-24T08:37:25;3.3;;;2.2;;
44126;SDS011;29786;50.798;7.302;2023-04-24T08:39:53;2.3;;;2.1;;
44126;SDS011;29786;50.798;7.302;2023-04-24T08:41:07;2.6;;;2.4;;
44126;SDS011;29786;50.798;7.302;2023-04-24T08:42:21;3;;;2.7;;
44126;SDS011;29786;50.798;7.302;2023-04-24T08:44:49;3;;;2.7;;
44126;SDS011;29786;50.798;7.302;2023-04-24T08:46:03;2.7;;;2.5;;
44126;SDS011;29786;50.798;7.302;2023-04-24T08:47:17;2.8;;;2.6;;
44126;SDS011;29786;50.798;7.302;2023-04-24T08:49:46;3.4;;;3.1;;
44126;SDS011;29786;50.798;7.302;2023-04-24T08:51:00;4.3;;;3.1;;
44126;SDS011;29786;50.798;7.302;2023-04-24T08:52:14;5.6;;;3.3;;
44126;SDS011;29786;50.798;7.302;2023-04-24T08:54:42;4;;;3.6;;
44126;SDS011;29786;50.798;7.302;2023-04-24T08:55:56;4.7;;;4.1;;
44126;SDS011;29786;50.798;7.302;2023-04-24T08:57:10;5;;;4.2;;
44126;SDS011;29786;50.798;7.302;2023-04-24T08:58:25;5.2;;;4.1;;
44126;SDS011;29786;50.798;7.302;2023-04-24T09:00:54;5.3;;;4;;
44126;SDS011;29786;50.798;7.302;2023-04-24T09:02:09;6;;;4.4;;
44126;SDS011;29786;50.798;7.302;2023-04-24T09:03:21;3.5;;;3.2;;
44126;SDS011;29786;50.798;7.302;2023-04-24T09:05:50;2.7;;;2.5;;
44126;SDS011;29786;50.798;7.302;2023-04-24T09:07:04;2.7;;;2.5;;
44126;SDS011;29786;50.798;7.302;2023-04-24T09:08:18;3.9;;;2.4;;
44126;SDS011;29786;50.798;7.302;2023-04-24T09:10:46;4.4;;;2.3;;
44126;SDS011;29786;50.798;7.302;2023-04-24T09:12:00;3.5;;;2.5;;
44126;SDS011;29786;50.798;7.302;2023-04-24T09:13:14;3.8;;;2.6;;
44126;SDS011;29786;50.798;7.302;2023-04-24T09:15:42;3.3;;;3;;
44126;SDS011;29786;50.798;7.302;2023-04-24T09:16:57;5.4;;;2.7;;
44126;SDS011;29786;50.798;7.302;2023-04-24T09:18:11;5.4;;;2.7;;
44126;SDS011;29786;50.798;7.302;2023-04-24T09:21:11;3.4;;;3.1;;
44126;SDS011;29786;50.798;7.302;2023-04-24T09:21:53;4;;;3.1;;
44126;SDS011;29786;50.798;7.302;2023-04-24T09:23:07;3.1;;;2.8;;
44126;SDS011;29786;50.798;7.302;2023-04-24T09:24:21;3.3;;;2.9;;
44126;SDS011;29786;50.798;7.302;2023-04-24T09:26:57;3.9;;;3.2;;
44126;SDS011;29786;50.798;7.302;2023-04-24T09:28:04;5.6;;;4;;
44126;SDS011;29786;50.798;7.302;2023-04-24T09:29:18;3.6;;;3.3;;
44126;SDS011;29786;50.798;7.302;2023-04-24T09:31:46;4.9;;;3.9;;
44126;SDS011;29786;50.798;7.302;2023-04-24T09:33:16;4.7;;;4.2;;
44126;SDS011;29786;50.798;7.302;2023-04-24T09:34:18;5.6;;;4;;
44126;SDS011;29786;50.798;7.302;2023-04-24T09:36:43;4.8;;;4;;
44126;SDS011;29786;50.798;7.302;2023-04-24T09:37:57;5.1;;;4.6;;
44126;SDS011;29786;50.798;7.302;2023-04-24T09:39:12;6.9;;;4.8;;
44126;SDS011;29786;50.798;7.302;2023-04-24T09:41:43;6.3;;;5.7;;
44126;SDS011;29786;50.798;7.302;2023-04-24T09:42:56;7;;;5.2;;
44126;SDS011;29786;50.798;7.302;2023-04-24T09:44:12;6.9;;;5.2;;
44126;SDS011;29786;50.798;7.302;2023-04-24T09:45:22;7.2;;;5.7;;
44126;SDS011;29786;50.798;7.302;2023-04-24T09:47:51;8.7;;;5.8;;
44126;SDS011;29786;50.798;7.302;2023-04-24T09:49:08;7.9;;;5.8;;
44126;SDS011;29786;50.798;7.302;2023-04-24T09:50:18;7.8;;;6.5;;
44126;SDS011;29786;50.798;7.302;2023-04-24T09:51:33;10;;;6.7;;
44126;SDS011;29786;50.798;7.302;2023-04-24T09:52:55;9.6;;;6.8;;
44126;SDS011;29786;50.798;7.302;2023-04-24T09:54:01;10.2;;;7;;
44126;SDS011;29786;50.798;7.302;2023-04-24T09:55:19;7.7;;;6.6;;
44126;SDS011;29786;50.798;7.302;2023-04-24T09:57:47;9.9;;;8.2;;
44126;SDS011;29786;50.798;7.302;2023-04-24T09:59:04;10.7;;;7.3;;
44126;SDS011;29786;50.798;7.302;2023-04-24T10:00:11;9.2;;;7.3;;